sensor_id;sensor_type;location;lat;lon;timestamp;temperature;humidity
31133;DHT22;17779;50.942;4.026;2024-03-07T00:00:55;7.60;99.90
31133;DHT22;17779;50.942;4.026;2024-03-07T00:03:21;7.50;99.90
31133;DHT22;17779;50.942;4.026;2024-03-07T00:05:49;7.50;99.90
31133;DHT22;17779;50.942;4.026;2024-03-07T00:08:15;7.50;99.90
31133;DHT22;17779;50.942;4.026;2024-03-07T00:10:41;7.60;99.90
31133;DHT22;17779;50.942;4.026;2024-03-07T00:13:09;7.50;99.90
31133;DHT22;17779;50.942;4.026;2024-03-07T00:15:35;7.50;99.90
31133;DHT22;17779;50.942;4.026;2024-03-07T00:18:01;7.30;99.90
31133;DHT22;17779;50.942;4.026;2024-03-07T00:20:26;7.30;99.90
31133;DHT22;17779;50.942;4.026;2024-03-07T00:22:52;7.40;99.90
31133;DHT22;17779;50.942;4.026;2024-03-07T00:25:18;7.40;99.90
31133;DHT22;17779;50.942;4.026;2024-03-07T00:27:45;7.10;99.90
31133;DHT22;17779;50.942;4.026;2024-03-07T00:30:10;7.00;99.90
31133;DHT22;17779;50.942;4.026;2024-03-07T00:32:39;7.10;99.90
31133;DHT22;17779;50.942;4.026;2024-03-07T00:35:05;7.20;99.90
31133;DHT22;17779;50.942;4.026;2024-03-07T00:37:31;7.30;99.90
31133;DHT22;17779;50.942;4.026;2024-03-07T00:39:56;7.40;99.90
31133;DHT22;17779;50.942;4.026;2024-03-07T00:42:22;7.30;99.90
31133;DHT22;17779;50.942;4.026;2024-03-07T00:44:48;7.40;99.90
31133;DHT22;17779;50.942;4.026;2024-03-07T00:47:18;7.30;99.90
31133;DHT22;17779;50.942;4.026;2024-03-07T00:49:43;7.30;99.90
31133;DHT22;17779;50.942;4.026;2024-03-07T00:52:12;7.20;99.90
31133;DHT22;17779;50.942;4.026;2024-03-07T00:54:37;7.20;99.90
31133;DHT22;17779;50.942;4.026;2024-03-07T00:57:04;7.10;99.90
31133;DHT22;17779;50.942;4.026;2024-03-07T00:59:30;7.10;99.90
31133;DHT22;17779;50.942;4.026;2024-03-07T01:01:56;6.90;99.90
31133;DHT22;17779;50.942;4.026;2024-03-07T01:04:21;6.80;99.90
31133;DHT22;17779;50.942;4.026;2024-03-07T01:06:48;6.80;99.90
31133;DHT22;17779;50.942;4.026;2024-03-07T01:09:14;6.90;99.90
31133;DHT22;17779;50.942;4.026;2024-03-07T01:11:44;6.90;99.90
31133;DHT22;17779;50.942;4.026;2024-03-07T01:14:14;7.00;99.90
31133;DHT22;17779;50.942;4.026;2024-03-07T01:16:40;7.00;99.90
31133;DHT22;17779;50.942;4.026;2024-03-07T01:19:06;7.00;99.90
31133;DHT22;17779;50.942;4.026;2024-03-07T01:21:33;6.90;99.90
31133;DHT22;17779;50.942;4.026;2024-03-07T01:23:59;7.00;99.90
31133;DHT22;17779;50.942;4.026;2024-03-07T01:26:26;7.00;99.90
31133;DHT22;17779;50.942;4.026;2024-03-07T01:28:52;6.80;99.90
31133;DHT22;17779;50.942;4.026;2024-03-07T01:31:18;6.80;99.90
31133;DHT22;17779;50.942;4.026;2024-03-07T01:33:44;6.90;99.90
31133;DHT22;17779;50.942;4.026;2024-03-07T01:36:11;6.90;99.90
31133;DHT22;17779;50.942;4.026;2024-03-07T01:38:38;6.90;99.90
31133;DHT22;17779;50.942;4.026;2024-03-07T01:41:04;6.90;99.90
31133;DHT22;17779;50.942;4.026;2024-03-07T01:43:29;6.80;99.90
31133;DHT22;17779;50.942;4.026;2024-03-07T01:45:56;6.70;99.90
31133;DHT22;17779;50.942;4.026;2024-03-07T01:48:25;6.60;99.90
31133;DHT22;17779;50.942;4.026;2024-03-07T01:50:51;6.70;99.90
31133;DHT22;17779;50.942;4.026;2024-03-07T01:53:17;6.70;99.90
31133;DHT22;17779;50.942;4.026;2024-03-07T01:55:45;6.60;99.90
31133;DHT22;17779;50.942;4.026;2024-03-07T01:58:13;6.60;99.90
31133;DHT22;17779;50.942;4.026;2024-03-07T02:00:40;6.60;99.90
31133;DHT22;17779;50.942;4.026;2024-03-07T02:03:08;6.60;99.90
31133;DHT22;17779;50.942;4.026;2024-03-07T02:05:33;6.60;99.90
31133;DHT22;17779;50.942;4.026;2024-03-07T02:07:59;6.60;99.90
31133;DHT22;17779;50.942;4.026;2024-03-07T02:10:25;6.70;99.90
31133;DHT22;17779;50.942;4.026;2024-03-07T02:12:50;6.70;99.90
31133;DHT22;17779;50.942;4.026;2024-03-07T02:15:16;6.70;99.90
31133;DHT22;17779;50.942;4.026;2024-03-07T02:17:42;6.40;99.90
31133;DHT22;17779;50.942;4.026;2024-03-07T02:20:08;6.40;99.90
31133;DHT22;17779;50.942;4.026;2024-03-07T02:22:39;6.30;99.90
31133;DHT22;17779;50.942;4.026;2024-03-07T02:25:06;6.30;99.90
31133;DHT22;17779;50.942;4.026;2024-03-07T02:27:32;6.20;99.90
31133;DHT22;17779;50.942;4.026;2024-03-07T02:29:57;6.20;99.90
31133;DHT22;17779;50.942;4.026;2024-03-07T02:32:23;6.10;99.90
31133;DHT22;17779;50.942;4.026;2024-03-07T02:34:49;6.20;99.90
31133;DHT22;17779;50.942;4.026;2024-03-07T02:37:16;6.30;99.90
31133;DHT22;17779;50.942;4.026;2024-03-07T02:39:41;6.40;99.90
31133;DHT22;17779;50.942;4.026;2024-03-07T02:42:08;6.40;99.90
31133;DHT22;17779;50.942;4.026;2024-03-07T02:44:35;6.30;99.90
31133;DHT22;17779;50.942;4.026;2024-03-07T02:47:00;6.40;99.90
31133;DHT22;17779;50.942;4.026;2024-03-07T02:49:29;6.30;99.90
31133;DHT22;17779;50.942;4.026;2024-03-07T02:51:55;6.30;99.90
31133;DHT22;17779;50.942;4.026;2024-03-07T02:54:20;6.20;99.90
31133;DHT22;17779;50.942;4.026;2024-03-07T02:56:47;6.20;99.90
31133;DHT22;17779;50.942;4.026;2024-03-07T02:59:13;6.20;99.90
31133;DHT22;17779;50.942;4.026;2024-03-07T03:01:39;6.20;99.90
31133;DHT22;17779;50.942;4.026;2024-03-07T03:04:07;6.20;99.90
31133;DHT22;17779;50.942;4.026;2024-03-07T03:06:34;6.20;99.90
31133;DHT22;17779;50.942;4.026;2024-03-07T03:11:30;6.10;99.90
31133;DHT22;17779;50.942;4.026;2024-03-07T03:13:57;6.10;99.90
31133;DHT22;17779;50.942;4.026;2024-03-07T03:16:23;6.10;99.90
31133;DHT22;17779;50.942;4.026;2024-03-07T03:18:49;6.10;99.90
31133;DHT22;17779;50.942;4.026;2024-03-07T03:21:16;5.90;99.90
31133;DHT22;17779;50.942;4.026;2024-03-07T03:23:41;5.90;99.90
31133;DHT22;17779;50.942;4.026;2024-03-07T03:26:07;5.90;99.90
31133;DHT22;17779;50.942;4.026;2024-03-07T03:28:33;5.90;99.90
31133;DHT22;17779;50.942;4.026;2024-03-07T03:30:59;5.90;99.90
31133;DHT22;17779;50.942;4.026;2024-03-07T03:33:29;5.90;99.90
31133;DHT22;17779;50.942;4.026;2024-03-07T03:35:55;5.70;99.90
31133;DHT22;17779;50.942;4.026;2024-03-07T03:38:21;5.70;99.90
31133;DHT22;17779;50.942;4.026;2024-03-07T03:40:48;5.80;99.90
31133;DHT22;17779;50.942;4.026;2024-03-07T03:43:14;5.70;99.90
31133;DHT22;17779;50.942;4.026;2024-03-07T03:45:41;5.80;99.90
31133;DHT22;17779;50.942;4.026;2024-03-07T03:48:07;5.70;99.90
31133;DHT22;17779;50.942;4.026;2024-03-07T03:50:33;5.80;99.90
31133;DHT22;17779;50.942;4.026;2024-03-07T03:52:59;5.90;99.90
31133;DHT22;17779;50.942;4.026;2024-03-07T03:55:27;5.80;99.90
31133;DHT22;17779;50.942;4.026;2024-03-07T03:57:54;5.80;99.90
31133;DHT22;17779;50.942;4.026;2024-03-07T04:00:20;5.70;99.90
31133;DHT22;17779;50.942;4.026;2024-03-07T04:02:48;5.70;99.90
31133;DHT22;17779;50.942;4.026;2024-03-07T04:05:14;5.70;99.90
31133;DHT22;17779;50.942;4.026;2024-03-07T04:07:41;5.70;99.90
31133;DHT22;17779;50.942;4.026;2024-03-07T04:10:07;5.80;99.90
31133;DHT22;17779;50.942;4.026;2024-03-07T04:12:34;5.70;99.90
31133;DHT22;17779;50.942;4.026;2024-03-07T04:14:59;5.60;99.90
31133;DHT22;17779;50.942;4.026;2024-03-07T04:17:26;5.50;99.90
31133;DHT22;17779;50.942;4.026;2024-03-07T04:19:52;5.50;99.90
31133;DHT22;17779;50.942;4.026;2024-03-07T04:22:18;5.40;99.90
31133;DHT22;17779;50.942;4.026;2024-03-07T04:24:45;5.50;99.90
31133;DHT22;17779;50.942;4.026;2024-03-07T04:27:11;5.50;99.90
31133;DHT22;17779;50.942;4.026;2024-03-07T04:29:37;5.60;99.90
31133;DHT22;17779;50.942;4.026;2024-03-07T04:32:03;5.50;99.90
31133;DHT22;17779;50.942;4.026;2024-03-07T04:34:30;5.40;99.90
31133;DHT22;17779;50.942;4.026;2024-03-07T04:36:58;5.40;99.90
31133;DHT22;17779;50.942;4.026;2024-03-07T04:39:26;5.50;99.90
31133;DHT22;17779;50.942;4.026;2024-03-07T04:42:04;5.40;99.90
31133;DHT22;17779;50.942;4.026;2024-03-07T04:44:34;5.30;99.90
31133;DHT22;17779;50.942;4.026;2024-03-07T04:47:05;5.20;99.90
31133;DHT22;17779;50.942;4.026;2024-03-07T04:49:32;5.30;99.90
31133;DHT22;17779;50.942;4.026;2024-03-07T04:51:58;5.30;99.90
31133;DHT22;17779;50.942;4.026;2024-03-07T04:54:28;5.40;99.90
31133;DHT22;17779;50.942;4.026;2024-03-07T04:56:54;5.40;99.90
31133;DHT22;17779;50.942;4.026;2024-03-07T04:59:22;5.40;99.90
31133;DHT22;17779;50.942;4.026;2024-03-07T05:01:48;5.30;99.90
31133;DHT22;17779;50.942;4.026;2024-03-07T05:04:15;5.20;99.90
31133;DHT22;17779;50.942;4.026;2024-03-07T05:06:41;5.20;99.90
31133;DHT22;17779;50.942;4.026;2024-03-07T05:09:09;5.20;99.90
31133;DHT22;17779;50.942;4.026;2024-03-07T05:11:35;5.20;99.90
31133;DHT22;17779;50.942;4.026;2024-03-07T05:14:02;5.20;99.90
31133;DHT22;17779;50.942;4.026;2024-03-07T05:16:29;5.00;99.90
31133;DHT22;17779;50.942;4.026;2024-03-07T05:18:55;5.00;99.90
31133;DHT22;17779;50.942;4.026;2024-03-07T05:21:25;5.10;99.90
31133;DHT22;17779;50.942;4.026;2024-03-07T05:24:04;5.00;99.90
31133;DHT22;17779;50.942;4.026;2024-03-07T05:26:30;5.10;99.90
31133;DHT22;17779;50.942;4.026;2024-03-07T05:29:02;5.10;99.90
31133;DHT22;17779;50.942;4.026;2024-03-07T05:31:37;4.90;99.90
31133;DHT22;17779;50.942;4.026;2024-03-07T05:34:07;4.90;99.90
31133;DHT22;17779;50.942;4.026;2024-03-07T05:36:36;4.80;99.90
31133;DHT22;17779;50.942;4.026;2024-03-07T05:39:09;4.80;99.90
31133;DHT22;17779;50.942;4.026;2024-03-07T05:41:37;4.80;99.90
31133;DHT22;17779;50.942;4.026;2024-03-07T05:44:03;4.80;99.90
31133;DHT22;17779;50.942;4.026;2024-03-07T05:46:29;4.90;99.90
31133;DHT22;17779;50.942;4.026;2024-03-07T05:48:55;4.80;99.90
31133;DHT22;17779;50.942;4.026;2024-03-07T05:51:25;4.90;99.90
31133;DHT22;17779;50.942;4.026;2024-03-07T05:53:51;4.70;99.90
31133;DHT22;17779;50.942;4.026;2024-03-07T05:56:17;4.70;99.90
31133;DHT22;17779;50.942;4.026;2024-03-07T05:58:42;4.70;99.90
31133;DHT22;17779;50.942;4.026;2024-03-07T06:01:08;4.70;99.90
31133;DHT22;17779;50.942;4.026;2024-03-07T06:03:34;4.70;99.90
31133;DHT22;17779;50.942;4.026;2024-03-07T06:06:00;4.70;99.90
31133;DHT22;17779;50.942;4.026;2024-03-07T06:08:27;4.80;99.90
31133;DHT22;17779;50.942;4.026;2024-03-07T06:10:53;4.90;99.90
31133;DHT22;17779;50.942;4.026;2024-03-07T06:13:19;5.00;99.90
31133;DHT22;17779;50.942;4.026;2024-03-07T06:15:45;5.20;99.90
31133;DHT22;17779;50.942;4.026;2024-03-07T06:18:11;5.20;99.90
31133;DHT22;17779;50.942;4.026;2024-03-07T06:20:42;5.20;99.90
31133;DHT22;17779;50.942;4.026;2024-03-07T06:23:08;5.30;99.90
31133;DHT22;17779;50.942;4.026;2024-03-07T06:25:34;5.30;99.90
31133;DHT22;17779;50.942;4.026;2024-03-07T06:28:03;5.40;99.90
31133;DHT22;17779;50.942;4.026;2024-03-07T06:30:36;5.50;99.90
31133;DHT22;17779;50.942;4.026;2024-03-07T06:33:02;5.40;99.90
31133;DHT22;17779;50.942;4.026;2024-03-07T06:35:28;5.50;99.90
31133;DHT22;17779;50.942;4.026;2024-03-07T06:37:54;5.50;99.90
31133;DHT22;17779;50.942;4.026;2024-03-07T06:40:19;5.40;99.90
31133;DHT22;17779;50.942;4.026;2024-03-07T06:42:48;5.40;99.90
31133;DHT22;17779;50.942;4.026;2024-03-07T06:45:14;5.40;99.90
31133;DHT22;17779;50.942;4.026;2024-03-07T06:47:41;5.50;99.90
31133;DHT22;17779;50.942;4.026;2024-03-07T06:50:08;5.50;99.90
31133;DHT22;17779;50.942;4.026;2024-03-07T06:52:35;5.40;99.90
31133;DHT22;17779;50.942;4.026;2024-03-07T06:55:01;5.40;99.90
31133;DHT22;17779;50.942;4.026;2024-03-07T06:57:29;5.60;99.90
31133;DHT22;17779;50.942;4.026;2024-03-07T06:59:55;5.80;99.90
31133;DHT22;17779;50.942;4.026;2024-03-07T07:02:20;5.90;99.90
31133;DHT22;17779;50.942;4.026;2024-03-07T07:04:46;5.90;99.90
31133;DHT22;17779;50.942;4.026;2024-03-07T07:07:13;5.80;99.90
31133;DHT22;17779;50.942;4.026;2024-03-07T07:09:40;5.60;99.90
31133;DHT22;17779;50.942;4.026;2024-03-07T07:12:06;5.50;99.90
31133;DHT22;17779;50.942;4.026;2024-03-07T07:14:32;5.50;99.90
31133;DHT22;17779;50.942;4.026;2024-03-07T07:16:57;5.60;99.90
31133;DHT22;17779;50.942;4.026;2024-03-07T07:19:24;5.50;99.90
31133;DHT22;17779;50.942;4.026;2024-03-07T07:21:50;5.60;99.90
31133;DHT22;17779;50.942;4.026;2024-03-07T07:24:19;5.40;99.90
31133;DHT22;17779;50.942;4.026;2024-03-07T07:26:47;5.60;99.90
31133;DHT22;17779;50.942;4.026;2024-03-07T07:29:12;5.60;99.90
31133;DHT22;17779;50.942;4.026;2024-03-07T07:31:38;5.60;99.90
31133;DHT22;17779;50.942;4.026;2024-03-07T07:34:04;5.70;99.90
31133;DHT22;17779;50.942;4.026;2024-03-07T07:36:30;5.70;99.90
31133;DHT22;17779;50.942;4.026;2024-03-07T07:38:56;5.70;99.90
31133;DHT22;17779;50.942;4.026;2024-03-07T07:41:22;5.80;99.90
31133;DHT22;17779;50.942;4.026;2024-03-07T07:43:47;5.90;99.90
31133;DHT22;17779;50.942;4.026;2024-03-07T07:46:13;5.80;99.90
31133;DHT22;17779;50.942;4.026;2024-03-07T07:48:41;5.80;99.90
31133;DHT22;17779;50.942;4.026;2024-03-07T07:51:07;6.00;99.90
31133;DHT22;17779;50.942;4.026;2024-03-07T07:53:33;6.00;99.90
31133;DHT22;17779;50.942;4.026;2024-03-07T07:55:59;6.20;99.90
31133;DHT22;17779;50.942;4.026;2024-03-07T07:58:25;6.40;99.90
31133;DHT22;17779;50.942;4.026;2024-03-07T08:00:50;6.50;99.90
31133;DHT22;17779;50.942;4.026;2024-03-07T08:03:17;6.30;99.90
31133;DHT22;17779;50.942;4.026;2024-03-07T08:05:43;6.30;99.90
31133;DHT22;17779;50.942;4.026;2024-03-07T08:08:11;6.20;99.90
31133;DHT22;17779;50.942;4.026;2024-03-07T08:10:39;6.00;99.90
31133;DHT22;17779;50.942;4.026;2024-03-07T08:13:06;6.20;99.90
31133;DHT22;17779;50.942;4.026;2024-03-07T08:15:33;6.00;99.90
31133;DHT22;17779;50.942;4.026;2024-03-07T08:17:59;6.20;99.90
31133;DHT22;17779;50.942;4.026;2024-03-07T08:20:26;6.40;99.90
31133;DHT22;17779;50.942;4.026;2024-03-07T08:22:52;6.00;99.90
31133;DHT22;17779;50.942;4.026;2024-03-07T08:25:19;6.10;99.90
31133;DHT22;17779;50.942;4.026;2024-03-07T08:27:45;5.90;99.90
31133;DHT22;17779;50.942;4.026;2024-03-07T08:30:11;6.10;99.90
31133;DHT22;17779;50.942;4.026;2024-03-07T08:32:40;6.20;99.90
31133;DHT22;17779;50.942;4.026;2024-03-07T08:35:06;6.40;99.90
31133;DHT22;17779;50.942;4.026;2024-03-07T08:37:44;6.40;99.90
31133;DHT22;17779;50.942;4.026;2024-03-07T08:40:10;6.60;99.90
31133;DHT22;17779;50.942;4.026;2024-03-07T08:42:37;6.70;99.90
31133;DHT22;17779;50.942;4.026;2024-03-07T08:45:03;6.80;99.90
31133;DHT22;17779;50.942;4.026;2024-03-07T08:47:32;6.90;99.90
31133;DHT22;17779;50.942;4.026;2024-03-07T08:49:58;7.00;99.90
31133;DHT22;17779;50.942;4.026;2024-03-07T08:52:24;7.30;99.90
31133;DHT22;17779;50.942;4.026;2024-03-07T08:54:50;7.50;99.90
31133;DHT22;17779;50.942;4.026;2024-03-07T08:57:16;7.30;99.90
31133;DHT22;17779;50.942;4.026;2024-03-07T08:59:43;7.40;99.90
31133;DHT22;17779;50.942;4.026;2024-03-07T09:02:09;7.30;99.90
31133;DHT22;17779;50.942;4.026;2024-03-07T09:04:37;7.80;99.90
31133;DHT22;17779;50.942;4.026;2024-03-07T09:07:04;8.10;99.90
31133;DHT22;17779;50.942;4.026;2024-03-07T09:09:30;7.70;99.90
31133;DHT22;17779;50.942;4.026;2024-03-07T09:11:56;7.70;99.90
31133;DHT22;17779;50.942;4.026;2024-03-07T09:14:21;7.60;99.90
31133;DHT22;17779;50.942;4.026;2024-03-07T09:16:47;7.30;99.90
31133;DHT22;17779;50.942;4.026;2024-03-07T09:19:14;7.10;99.90
31133;DHT22;17779;50.942;4.026;2024-03-07T09:21:40;7.10;99.90
31133;DHT22;17779;50.942;4.026;2024-03-07T09:24:06;7.30;99.90
31133;DHT22;17779;50.942;4.026;2024-03-07T09:26:33;7.60;99.90
31133;DHT22;17779;50.942;4.026;2024-03-07T09:28:59;8.20;99.90
31133;DHT22;17779;50.942;4.026;2024-03-07T09:31:31;9.60;99.90
31133;DHT22;17779;50.942;4.026;2024-03-07T09:33:57;10.80;99.90
31133;DHT22;17779;50.942;4.026;2024-03-07T09:36:27;11.90;99.90
31133;DHT22;17779;50.942;4.026;2024-03-07T09:38:53;11.50;99.90
31133;DHT22;17779;50.942;4.026;2024-03-07T09:41:19;12.00;99.90
31133;DHT22;17779;50.942;4.026;2024-03-07T09:43:49;13.60;99.90
31133;DHT22;17779;50.942;4.026;2024-03-07T09:46:16;14.90;99.90
31133;DHT22;17779;50.942;4.026;2024-03-07T09:48:43;13.30;99.90
31133;DHT22;17779;50.942;4.026;2024-03-07T09:51:09;13.80;99.90
31133;DHT22;17779;50.942;4.026;2024-03-07T09:53:38;13.20;99.90
31133;DHT22;17779;50.942;4.026;2024-03-07T09:56:06;12.50;99.90
31133;DHT22;17779;50.942;4.026;2024-03-07T09:58:32;13.00;99.90
31133;DHT22;17779;50.942;4.026;2024-03-07T10:00:59;15.40;99.90
31133;DHT22;17779;50.942;4.026;2024-03-07T10:03:25;14.50;99.90
31133;DHT22;17779;50.942;4.026;2024-03-07T10:05:53;12.90;99.90
31133;DHT22;17779;50.942;4.026;2024-03-07T10:08:19;12.00;99.90
31133;DHT22;17779;50.942;4.026;2024-03-07T10:10:46;11.50;99.90
31133;DHT22;17779;50.942;4.026;2024-03-07T10:13:13;12.30;99.90
31133;DHT22;17779;50.942;4.026;2024-03-07T10:15:38;12.60;99.90
31133;DHT22;17779;50.942;4.026;2024-03-07T10:18:07;13.50;99.90
31133;DHT22;17779;50.942;4.026;2024-03-07T10:20:32;13.50;99.90
31133;DHT22;17779;50.942;4.026;2024-03-07T10:22:58;15.00;99.90
31133;DHT22;17779;50.942;4.026;2024-03-07T10:25:25;15.70;99.90
31133;DHT22;17779;50.942;4.026;2024-03-07T10:27:53;15.90;99.90
31133;DHT22;17779;50.942;4.026;2024-03-07T10:30:20;14.30;99.90
31133;DHT22;17779;50.942;4.026;2024-03-07T10:32:46;14.00;99.90
31133;DHT22;17779;50.942;4.026;2024-03-07T10:35:12;14.10;99.90
31133;DHT22;17779;50.942;4.026;2024-03-07T10:37:40;15.90;99.90
31133;DHT22;17779;50.942;4.026;2024-03-07T10:40:06;17.00;99.90
31133;DHT22;17779;50.942;4.026;2024-03-07T10:42:44;17.50;99.90
31133;DHT22;17779;50.942;4.026;2024-03-07T10:45:11;16.60;99.90
31133;DHT22;17779;50.942;4.026;2024-03-07T10:47:37;17.50;99.90
31133;DHT22;17779;50.942;4.026;2024-03-07T10:52:43;17.50;99.90
31133;DHT22;17779;50.942;4.026;2024-03-07T10:55:13;17.60;99.90
31133;DHT22;17779;50.942;4.026;2024-03-07T10:57:51;17.10;99.90
31133;DHT22;17779;50.942;4.026;2024-03-07T11:00:22;16.90;99.90
31133;DHT22;17779;50.942;4.026;2024-03-07T11:02:57;15.00;99.90
31133;DHT22;17779;50.942;4.026;2024-03-07T11:05:26;15.60;99.90
31133;DHT22;17779;50.942;4.026;2024-03-07T11:08:02;17.40;99.90
31133;DHT22;17779;50.942;4.026;2024-03-07T11:10:37;15.90;99.90
31133;DHT22;17779;50.942;4.026;2024-03-07T11:13:04;15.40;99.90
31133;DHT22;17779;50.942;4.026;2024-03-07T11:15:30;16.20;99.90
31133;DHT22;17779;50.942;4.026;2024-03-07T11:17:56;14.80;99.90
31133;DHT22;17779;50.942;4.026;2024-03-07T11:20:22;15.60;99.90
31133;DHT22;17779;50.942;4.026;2024-03-07T11:22:49;16.00;99.90
31133;DHT22;17779;50.942;4.026;2024-03-07T11:25:17;15.00;99.90
31133;DHT22;17779;50.942;4.026;2024-03-07T11:27:50;15.60;99.90
31133;DHT22;17779;50.942;4.026;2024-03-07T11:30:16;14.60;99.90
31133;DHT22;17779;50.942;4.026;2024-03-07T11:32:43;15.20;99.90
31133;DHT22;17779;50.942;4.026;2024-03-07T11:35:13;15.60;99.90
31133;DHT22;17779;50.942;4.026;2024-03-07T11:37:48;16.10;99.90
31133;DHT22;17779;50.942;4.026;2024-03-07T11:42:53;17.70;99.90
31133;DHT22;17779;50.942;4.026;2024-03-07T11:45:19;18.50;99.90
31133;DHT22;17779;50.942;4.026;2024-03-07T11:47:52;18.50;99.40
31133;DHT22;17779;50.942;4.026;2024-03-07T11:50:47;18.10;97.50
31133;DHT22;17779;50.942;4.026;2024-03-07T11:53:14;16.60;99.90
31133;DHT22;17779;50.942;4.026;2024-03-07T11:55:40;16.00;99.90
31133;DHT22;17779;50.942;4.026;2024-03-07T12:00:42;15.00;99.90
31133;DHT22;17779;50.942;4.026;2024-03-07T12:03:10;14.30;99.90
31133;DHT22;17779;50.942;4.026;2024-03-07T12:05:39;13.60;99.90
31133;DHT22;17779;50.942;4.026;2024-03-07T12:08:05;13.10;99.90
31133;DHT22;17779;50.942;4.026;2024-03-07T12:10:31;12.90;99.90
31133;DHT22;17779;50.942;4.026;2024-03-07T12:12:56;12.70;99.90
31133;DHT22;17779;50.942;4.026;2024-03-07T12:15:23;13.40;99.90
31133;DHT22;17779;50.942;4.026;2024-03-07T12:17:49;14.20;99.90
31133;DHT22;17779;50.942;4.026;2024-03-07T12:20:18;15.00;99.90
31133;DHT22;17779;50.942;4.026;2024-03-07T12:22:56;15.50;99.90
31133;DHT22;17779;50.942;4.026;2024-03-07T12:25:25;16.70;99.90
31133;DHT22;17779;50.942;4.026;2024-03-07T12:28:11;16.40;99.90
31133;DHT22;17779;50.942;4.026;2024-03-07T12:30:48;15.30;99.90
31133;DHT22;17779;50.942;4.026;2024-03-07T12:33:18;14.70;99.90
31133;DHT22;17779;50.942;4.026;2024-03-07T12:35:48;13.80;99.90
31133;DHT22;17779;50.942;4.026;2024-03-07T12:38:15;13.20;99.90
31133;DHT22;17779;50.942;4.026;2024-03-07T12:40:42;12.80;99.90
31133;DHT22;17779;50.942;4.026;2024-03-07T12:45:47;14.20;99.90
31133;DHT22;17779;50.942;4.026;2024-03-07T12:48:13;16.90;99.90
31133;DHT22;17779;50.942;4.026;2024-03-07T12:50:40;16.60;99.50
31133;DHT22;17779;50.942;4.026;2024-03-07T12:53:06;16.20;99.90
31133;DHT22;17779;50.942;4.026;2024-03-07T12:55:38;15.30;99.90
31133;DHT22;17779;50.942;4.026;2024-03-07T12:58:07;15.30;99.90
31133;DHT22;17779;50.942;4.026;2024-03-07T13:00:35;15.60;99.90
31133;DHT22;17779;50.942;4.026;2024-03-07T13:03:01;15.40;99.90
31133;DHT22;17779;50.942;4.026;2024-03-07T13:05:27;15.30;99.90
31133;DHT22;17779;50.942;4.026;2024-03-07T13:07:52;15.20;99.90
31133;DHT22;17779;50.942;4.026;2024-03-07T13:10:18;14.40;99.90
31133;DHT22;17779;50.942;4.026;2024-03-07T13:12:46;13.50;99.90
31133;DHT22;17779;50.942;4.026;2024-03-07T13:15:12;13.30;99.90
31133;DHT22;17779;50.942;4.026;2024-03-07T13:17:38;13.20;99.90
31133;DHT22;17779;50.942;4.026;2024-03-07T13:20:04;13.30;99.90
31133;DHT22;17779;50.942;4.026;2024-03-07T13:22:43;13.40;99.90
31133;DHT22;17779;50.942;4.026;2024-03-07T13:25:12;13.30;99.90
31133;DHT22;17779;50.942;4.026;2024-03-07T13:30:17;12.70;99.90
31133;DHT22;17779;50.942;4.026;2024-03-07T13:32:49;12.30;99.90
31133;DHT22;17779;50.942;4.026;2024-03-07T13:35:15;12.40;99.90
31133;DHT22;17779;50.942;4.026;2024-03-07T13:37:41;13.80;99.90
31133;DHT22;17779;50.942;4.026;2024-03-07T13:40:07;15.00;99.90
31133;DHT22;17779;50.942;4.026;2024-03-07T13:42:48;15.30;99.90
31133;DHT22;17779;50.942;4.026;2024-03-07T13:45:20;15.80;99.90
31133;DHT22;17779;50.942;4.026;2024-03-07T13:47:46;15.10;99.90
31133;DHT22;17779;50.942;4.026;2024-03-07T13:50:17;14.00;99.90
31133;DHT22;17779;50.942;4.026;2024-03-07T13:52:49;13.70;99.90
31133;DHT22;17779;50.942;4.026;2024-03-07T13:55:36;13.50;99.90
31133;DHT22;17779;50.942;4.026;2024-03-07T13:58:06;12.80;99.90
31133;DHT22;17779;50.942;4.026;2024-03-07T14:00:44;12.50;99.90
31133;DHT22;17779;50.942;4.026;2024-03-07T14:29:44;11.60;99.90
31133;DHT22;17779;50.942;4.026;2024-03-07T14:32:12;11.60;99.90
31133;DHT22;17779;50.942;4.026;2024-03-07T14:34:53;11.90;99.90
31133;DHT22;17779;50.942;4.026;2024-03-07T14:37:22;11.60;99.90
31133;DHT22;17779;50.942;4.026;2024-03-07T14:39:49;11.60;99.90
31133;DHT22;17779;50.942;4.026;2024-03-07T14:42:16;11.90;99.90
31133;DHT22;17779;50.942;4.026;2024-03-07T14:44:45;12.00;99.90
31133;DHT22;17779;50.942;4.026;2024-03-07T14:47:13;11.80;99.90
31133;DHT22;17779;50.942;4.026;2024-03-07T14:49:41;11.70;99.90
31133;DHT22;17779;50.942;4.026;2024-03-07T14:52:07;11.90;99.90
31133;DHT22;17779;50.942;4.026;2024-03-07T14:54:39;11.60;99.90
31133;DHT22;17779;50.942;4.026;2024-03-07T14:57:07;11.80;99.90
31133;DHT22;17779;50.942;4.026;2024-03-07T14:59:36;11.70;99.90
31133;DHT22;17779;50.942;4.026;2024-03-07T15:02:02;11.50;99.90
31133;DHT22;17779;50.942;4.026;2024-03-07T15:04:29;11.40;99.90
31133;DHT22;17779;50.942;4.026;2024-03-07T15:06:58;11.30;99.90
31133;DHT22;17779;50.942;4.026;2024-03-07T15:09:24;11.50;99.90
31133;DHT22;17779;50.942;4.026;2024-03-07T15:11:50;11.40;99.90
31133;DHT22;17779;50.942;4.026;2024-03-07T15:14:15;11.40;99.90
31133;DHT22;17779;50.942;4.026;2024-03-07T15:16:41;11.30;99.90
31133;DHT22;17779;50.942;4.026;2024-03-07T15:19:07;11.30;99.90
31133;DHT22;17779;50.942;4.026;2024-03-07T15:21:34;11.30;99.90
31133;DHT22;17779;50.942;4.026;2024-03-07T15:23:59;11.30;99.90
31133;DHT22;17779;50.942;4.026;2024-03-07T15:26:26;11.30;99.90
31133;DHT22;17779;50.942;4.026;2024-03-07T15:28:52;11.10;99.90
31133;DHT22;17779;50.942;4.026;2024-03-07T15:31:21;11.10;99.90
31133;DHT22;17779;50.942;4.026;2024-03-07T15:33:47;11.00;99.90
31133;DHT22;17779;50.942;4.026;2024-03-07T15:36:14;10.90;99.90
31133;DHT22;17779;50.942;4.026;2024-03-07T15:38:40;10.90;99.90
31133;DHT22;17779;50.942;4.026;2024-03-07T15:41:05;11.00;99.90
31133;DHT22;17779;50.942;4.026;2024-03-07T15:43:40;11.00;99.90
31133;DHT22;17779;50.942;4.026;2024-03-07T15:46:09;11.00;99.90
31133;DHT22;17779;50.942;4.026;2024-03-07T15:48:40;11.10;99.90
31133;DHT22;17779;50.942;4.026;2024-03-07T15:51:06;11.00;99.90
31133;DHT22;17779;50.942;4.026;2024-03-07T15:53:33;11.00;99.90
31133;DHT22;17779;50.942;4.026;2024-03-07T15:55:59;11.00;99.90
31133;DHT22;17779;50.942;4.026;2024-03-07T15:58:25;10.90;99.90
31133;DHT22;17779;50.942;4.026;2024-03-07T16:00:51;10.70;99.90
31133;DHT22;17779;50.942;4.026;2024-03-07T16:03:18;10.70;99.90
31133;DHT22;17779;50.942;4.026;2024-03-07T16:05:43;10.70;99.90
31133;DHT22;17779;50.942;4.026;2024-03-07T16:08:09;10.70;99.90
31133;DHT22;17779;50.942;4.026;2024-03-07T16:10:39;10.70;99.90
31133;DHT22;17779;50.942;4.026;2024-03-07T16:13:06;10.60;99.90
31133;DHT22;17779;50.942;4.026;2024-03-07T16:15:33;10.60;99.90
31133;DHT22;17779;50.942;4.026;2024-03-07T16:17:59;10.60;99.90
31133;DHT22;17779;50.942;4.026;2024-03-07T16:20:25;10.70;99.90
31133;DHT22;17779;50.942;4.026;2024-03-07T16:22:51;10.60;99.90